Home > Products > Valid Products > TAF

000
FTUS44 KMRX 311730
TAFCHA
TAF
KCHA 311730Z 3118/0118 25008KT P6SM SCT050 SCT100
     FM312000 24010G16KT P6SM VCTS BKN045CB
     FM010200 35004KT P6SM SCT035 SCT100
     FM011400 03004KT P6SM FEW040=



000
FTUS44 KMRX 311730
TAFTRI
TAF
KTRI 311730Z 3118/0118 24015G24KT P6SM SKC
     FM312300 26010KT P6SM SCT050 SCT120
     FM010500 32003KT P6SM FEW035
     FM011400 VRB02KT P6SM SKC=



000
FTUS44 KMRX 311730
TAFTRI
TAF
KTRI 311730Z 3118/0118 24015G24KT P6SM SKC
     FM312300 26010KT P6SM SCT050 SCT120
     FM010500 32003KT P6SM FEW035
     FM011400 VRB02KT P6SM SKC=



000
FTUS44 KMRX 311730
TAFCHA
TAF
KCHA 311730Z 3118/0118 25008KT P6SM SCT050 SCT100
     FM312000 24010G16KT P6SM VCTS BKN045CB
     FM010200 35004KT P6SM SCT035 SCT100
     FM011400 03004KT P6SM FEW040=



000
FTUS44 KMRX 311730
TAFTYS
TAF
KTYS 311730Z 3118/0118 23016G22KT P6SM FEW040
     FM312200 24012KT P6SM BKN050
     FM010500 04004KT P6SM FEW040
     FM011300 04005KT P6SM SKC=



000
FTUS44 KMRX 311730
TAFTRI
TAF
KTRI 311730Z 3118/0118 24015G24KT P6SM SKC
     FM312300 26010KT P6SM SCT050 SCT120
     FM010500 32003KT P6SM FEW035
     FM011400 VRB02KT P6SM SKC=



000
FTUS44 KMRX 311730
TAFTYS
TAF
KTYS 311730Z 3118/0118 23016G22KT P6SM FEW040
     FM312200 24012KT P6SM BKN050
     FM010500 04004KT P6SM FEW040
     FM011300 04005KT P6SM SKC=



000
FTUS44 KMRX 311730
TAFTYS
TAF
KTYS 311730Z 3118/0118 23016G22KT P6SM FEW040
     FM312200 24012KT P6SM BKN050
     FM010500 04004KT P6SM FEW040
     FM011300 04005KT P6SM SKC=



000
FTUS44 KMRX 311730
TAFCHA
TAF
KCHA 311730Z 3118/0118 25008KT P6SM SCT050 SCT100
     FM312000 24010G16KT P6SM VCTS BKN045CB
     FM010200 35004KT P6SM SCT035 SCT100
     FM011400 03004KT P6SM FEW040=



000
FTUS44 KMRX 311730
TAFTYS
TAF
KTYS 311730Z 3118/0118 23016G22KT P6SM FEW040
     FM312200 24012KT P6SM BKN050
     FM010500 04004KT P6SM FEW040
     FM011300 04005KT P6SM SKC=



000
FTUS44 KMRX 311730
TAFTRI
TAF
KTRI 311730Z 3118/0118 24015G24KT P6SM SKC
     FM312300 26010KT P6SM SCT050 SCT120
     FM010500 32003KT P6SM FEW035
     FM011400 VRB02KT P6SM SKC=



000
FTUS44 KMRX 311730
TAFCHA
TAF
KCHA 311730Z 3118/0118 25008KT P6SM SCT050 SCT100
     FM312000 24010G16KT P6SM VCTS BKN045CB
     FM010200 35004KT P6SM SCT035 SCT100
     FM011400 03004KT P6SM FEW040=



000
FTUS44 KMRX 311126
TAFTYS
TAF
KTYS 311126Z 3112/0112 VRB04KT P6SM SCT250
     FM311400 22008KT P6SM SCT250
     FM312000 24014G20KT P6SM VCTS BKN050CB
     FM010400 24006KT P6SM SCT050 SCT100
     FM010900 00000KT 3SM BR SCT035=



000
FTUS44 KMRX 311126
TAFCHA
TAF
KCHA 311126Z 3112/0112 00000KT P6SM SCT250
     FM311500 21006KT P6SM SCT050 SCT100
     FM312000 24009G16KT P6SM VCTS BKN050CB
     FM010400 VRB04KT P6SM SCT050 SCT100
     FM010900 00000KT 2SM BR FEW002=



000
FTUS44 KMRX 311126
TAFTRI
TAF
KTRI 311126Z 3112/0112 00000KT P6SM SCT250
     FM311500 24008KT P6SM BKN250
     FM311800 26015G25KT P6SM SCT050 SCT150
     FM010000 31005KT P6SM SCT050 SCT100
     FM010900 00000KT 2SM BR SCT001=



000
FTUS44 KMRX 311126
TAFCHA
TAF
KCHA 311126Z 3112/0112 00000KT P6SM SCT250
     FM311500 21006KT P6SM SCT050 SCT100
     FM312000 24009G16KT P6SM VCTS BKN050CB
     FM010400 VRB04KT P6SM SCT050 SCT100
     FM010900 00000KT 2SM BR FEW002=



000
FTUS44 KMRX 311126
TAFTYS
TAF
KTYS 311126Z 3112/0112 VRB04KT P6SM SCT250
     FM311400 22008KT P6SM SCT250
     FM312000 24014G20KT P6SM VCTS BKN050CB
     FM010400 24006KT P6SM SCT050 SCT100
     FM010900 00000KT 3SM BR SCT035=



000
FTUS44 KMRX 311126
TAFTRI
TAF
KTRI 311126Z 3112/0112 00000KT P6SM SCT250
     FM311500 24008KT P6SM BKN250
     FM311800 26015G25KT P6SM SCT050 SCT150
     FM010000 31005KT P6SM SCT050 SCT100
     FM010900 00000KT 2SM BR SCT001=



000
FTUS44 KMRX 310526
TAFTRI
TAF
KTRI 310526Z 3106/0106 00000KT P6SM BKN250
     FM311500 24008KT P6SM BKN250
     FM311800 26015G25KT P6SM SCT050 SCT150
     FM010000 31005KT P6SM SCT050 SCT100=



000
FTUS44 KMRX 310526
TAFCHA
TAF
KCHA 310526Z 3106/0106 00000KT P6SM FEW250
     FM311500 20006KT P6SM SCT050 SCT100
     FM312000 23009G16KT P6SM VCTS BKN050CB
     FM010300 VRB04KT P6SM SCT050 SCT100=



000
FTUS44 KMRX 310526
TAFTYS
TAF
KTYS 310526Z 3106/0106 VRB04KT P6SM SCT250
     FM311400 22008KT P6SM SCT250
     FM312000 24014G20KT P6SM VCSH BKN050
     FM010300 24006KT P6SM SCT050 SCT100=



000
FTUS44 KMRX 310526
TAFTYS
TAF
KTYS 310526Z 3106/0106 VRB04KT P6SM SCT250
     FM311400 22008KT P6SM SCT250
     FM312000 24014G20KT P6SM VCSH BKN050
     FM010300 24006KT P6SM SCT050 SCT100=



000
FTUS44 KMRX 310526
TAFCHA
TAF
KCHA 310526Z 3106/0106 00000KT P6SM FEW250
     FM311500 20006KT P6SM SCT050 SCT100
     FM312000 23009G16KT P6SM VCTS BKN050CB
     FM010300 VRB04KT P6SM SCT050 SCT100=



000
FTUS44 KMRX 310526
TAFTRI
TAF
KTRI 310526Z 3106/0106 00000KT P6SM BKN250
     FM311500 24008KT P6SM BKN250
     FM311800 26015G25KT P6SM SCT050 SCT150
     FM010000 31005KT P6SM SCT050 SCT100=



000
FTUS44 KMRX 310526
TAFTYS
TAF
KTYS 310526Z 3106/0106 VRB04KT P6SM SCT250
     FM311400 22008KT P6SM SCT250
     FM312000 24014G20KT P6SM VCSH BKN050
     FM010300 24006KT P6SM SCT050 SCT100=



000
FTUS44 KMRX 310526
TAFTRI
TAF
KTRI 310526Z 3106/0106 00000KT P6SM BKN250
     FM311500 24008KT P6SM BKN250
     FM311800 26015G25KT P6SM SCT050 SCT150
     FM010000 31005KT P6SM SCT050 SCT100=



000
FTUS44 KMRX 310526
TAFCHA
TAF
KCHA 310526Z 3106/0106 00000KT P6SM FEW250
     FM311500 20006KT P6SM SCT050 SCT100
     FM312000 23009G16KT P6SM VCTS BKN050CB
     FM010300 VRB04KT P6SM SCT050 SCT100=



000
FTUS44 KMRX 310526
TAFCHA
TAF
KCHA 310526Z 3106/0106 00000KT P6SM FEW250
     FM311500 20006KT P6SM SCT050 SCT100
     FM312000 23009G16KT P6SM VCTS BKN050CB
     FM010300 VRB04KT P6SM SCT050 SCT100=



000
FTUS44 KMRX 310526
TAFTYS
TAF
KTYS 310526Z 3106/0106 VRB04KT P6SM SCT250
     FM311400 22008KT P6SM SCT250
     FM312000 24014G20KT P6SM VCSH BKN050
     FM010300 24006KT P6SM SCT050 SCT100=



000
FTUS44 KMRX 310526
TAFTRI
TAF
KTRI 310526Z 3106/0106 00000KT P6SM BKN250
     FM311500 24008KT P6SM BKN250
     FM311800 26015G25KT P6SM SCT050 SCT150
     FM010000 31005KT P6SM SCT050 SCT100=



000
FTUS44 KMRX 302325
TAFTRI
TAF
KTRI 302325Z 3100/3124 28010KT P6SM SCT060
     FM310300 00000KT P6SM FEW200
     FM311400 28008KT P6SM SCT120
     FM312100 26011G18KT P6SM SCT050 BKN250=



000
FTUS44 KMRX 302325
TAFTYS
TAF
KTYS 302325Z 3100/3124 27010KT P6SM SKC
     FM310300 00000KT P6SM SCT250
     FM311300 22008KT P6SM FEW120
     FM312000 24012G20KT P6SM SCT060 BKN200=



000
FTUS44 KMRX 302325
TAFCHA
TAF
KCHA 302325Z 3100/3124 26008KT P6SM SKC
     FM310200 00000KT P6SM FEW250
     FM311300 20007KT P6SM SCT100
     FM311900 22009G16KT P6SM SCT050 BKN150=



000
FTUS44 KMRX 302325
TAFTRI
TAF
KTRI 302325Z 3100/3124 28010KT P6SM SCT060
     FM310300 00000KT P6SM FEW200
     FM311400 28008KT P6SM SCT120
     FM312100 26011G18KT P6SM SCT050 BKN250=



000
FTUS44 KMRX 302325
TAFTYS
TAF
KTYS 302325Z 3100/3124 27010KT P6SM SKC
     FM310300 00000KT P6SM SCT250
     FM311300 22008KT P6SM FEW120
     FM312000 24012G20KT P6SM SCT060 BKN200=



000
FTUS44 KMRX 302325
TAFCHA
TAF
KCHA 302325Z 3100/3124 26008KT P6SM SKC
     FM310200 00000KT P6SM FEW250
     FM311300 20007KT P6SM SCT100
     FM311900 22009G16KT P6SM SCT050 BKN150=



000
FTUS44 KMRX 302200 AAA
TAFCHA
TAF AMD
KCHA 302200Z 3022/3118 26008G16KT P6SM FEW070
     FM310300 00000KT P6SM SCT150
     FM311300 23007KT P6SM SCT040 BKN150=



000
FTUS44 KMRX 302200 AAA
TAFCHA
TAF AMD
KCHA 302200Z 3022/3118 26008G16KT P6SM FEW070
     FM310300 00000KT P6SM SCT150
     FM311300 23007KT P6SM SCT040 BKN150=



000
FTUS44 KMRX 302159 AAB
TAFTYS
TAF AMD
KTYS 302159Z 3022/3118 27010KT P6SM FEW050
     FM310300 00000KT P6SM SCT150 BKN250
     FM311300 23008KT P6SM FEW040 BKN150
     FM311700 24012G20KT P6SM SCT045 SCT200=



000
FTUS44 KMRX 302159 AAB
TAFTYS
TAF AMD
KTYS 302159Z 3022/3118 27010KT P6SM FEW050
     FM310300 00000KT P6SM SCT150 BKN250
     FM311300 23008KT P6SM FEW040 BKN150
     FM311700 24012G20KT P6SM SCT045 SCT200=



000
FTUS44 KMRX 302123 AAB
TAFTRI
TAF AMD
KTRI 302123Z 3021/3118 28010G18KT P6SM SCT050
     FM310300 00000KT P6SM SCT200
     FM311400 24008KT P6SM SCT120
     FM311700 25012G18KT P6SM SCT045 SCT150=



000
FTUS44 KMRX 302123 AAB
TAFTRI
TAF AMD
KTRI 302123Z 3021/3118 28010G18KT P6SM SCT050
     FM310300 00000KT P6SM SCT200
     FM311400 24008KT P6SM SCT120
     FM311700 25012G18KT P6SM SCT045 SCT150=



000
FTUS44 KMRX 302123 AAB
TAFTRI
TAF AMD
KTRI 302123Z 3021/3118 28010G18KT P6SM SCT050
     FM310300 00000KT P6SM SCT200
     FM311400 24008KT P6SM SCT120
     FM311700 25012G18KT P6SM SCT045 SCT150=



000
FTUS44 KMRX 302123 AAB
TAFTRI
TAF AMD
KTRI 302123Z 3021/3118 28010G18KT P6SM SCT050
     FM310300 00000KT P6SM SCT200
     FM311400 24008KT P6SM SCT120
     FM311700 25012G18KT P6SM SCT045 SCT150=



000
FTUS44 KMRX 302007 AAA
TAFTRI
TAF AMD
KTRI 302007Z 3020/3118 31014G20KT P6SM SCT050
     FM310300 00000KT P6SM SCT200
     FM311400 24008KT P6SM SCT120
     FM311700 25012G18KT P6SM SCT045 SCT150=



000
FTUS44 KMRX 302006 AAA
TAFTYS
TAF AMD
KTYS 302006Z 3020/3118 24010G18KT P6SM SCT050
     FM310300 00000KT P6SM SCT150 BKN250
     FM311300 23008KT P6SM FEW040 BKN150
     FM311700 24012G20KT P6SM SCT045 SCT200=



000
FTUS44 KMRX 302006 AAA
TAFTYS
TAF AMD
KTYS 302006Z 3020/3118 24010G18KT P6SM SCT050
     FM310300 00000KT P6SM SCT150 BKN250
     FM311300 23008KT P6SM FEW040 BKN150
     FM311700 24012G20KT P6SM SCT045 SCT200=



000
FTUS44 KMRX 301732
TAFCHA
TAF
KCHA 301732Z 3018/3118 32006KT P6SM SCT045
     FM310300 00000KT P6SM SCT150
     FM311300 23007KT P6SM SCT040 BKN150=



000
FTUS44 KMRX 301732
TAFTYS
TAF
KTYS 301732Z 3018/3118 27007KT P6SM SCT045
     FM310300 00000KT P6SM SCT150 BKN250
     FM311300 23008KT P6SM FEW040 BKN150
     FM311700 24012G20KT P6SM SCT045 SCT200=



000
FTUS44 KMRX 301732
TAFCHA
TAF
KCHA 301732Z 3018/3118 32006KT P6SM SCT045
     FM310300 00000KT P6SM SCT150
     FM311300 23007KT P6SM SCT040 BKN150=



000
FTUS44 KMRX 301732
TAFTRI
TAF
KTRI 301732Z 3018/3118 26014G20KT P6SM BKN045
     FM302000 27010G16KT P6SM SCT045
     FM310300 00000KT P6SM SCT200
     FM311400 24008KT P6SM SCT120
     FM311700 25012G18KT P6SM SCT045 SCT150=



000
FTUS44 KMRX 301732
TAFTRI
TAF
KTRI 301732Z 3018/3118 26014G20KT P6SM BKN045
     FM302000 27010G16KT P6SM SCT045
     FM310300 00000KT P6SM SCT200
     FM311400 24008KT P6SM SCT120
     FM311700 25012G18KT P6SM SCT045 SCT150=



000
FTUS44 KMRX 301732
TAFTYS
TAF
KTYS 301732Z 3018/3118 27007KT P6SM SCT045
     FM310300 00000KT P6SM SCT150 BKN250
     FM311300 23008KT P6SM FEW040 BKN150
     FM311700 24012G20KT P6SM SCT045 SCT200=



000
FTUS44 KMRX 301732
TAFTYS
TAF
KTYS 301732Z 3018/3118 27007KT P6SM SCT045
     FM310300 00000KT P6SM SCT150 BKN250
     FM311300 23008KT P6SM FEW040 BKN150
     FM311700 24012G20KT P6SM SCT045 SCT200=



000
FTUS44 KMRX 301732
TAFTRI
TAF
KTRI 301732Z 3018/3118 26014G20KT P6SM BKN045
     FM302000 27010G16KT P6SM SCT045
     FM310300 00000KT P6SM SCT200
     FM311400 24008KT P6SM SCT120
     FM311700 25012G18KT P6SM SCT045 SCT150=



000
FTUS44 KMRX 301732
TAFCHA
TAF
KCHA 301732Z 3018/3118 32006KT P6SM SCT045
     FM310300 00000KT P6SM SCT150
     FM311300 23007KT P6SM SCT040 BKN150=



000
FTUS44 KMRX 301732
TAFTRI
TAF
KTRI 301732Z 3018/3118 26014G20KT P6SM BKN045
     FM302000 27010G16KT P6SM SCT045
     FM310300 00000KT P6SM SCT200
     FM311400 24008KT P6SM SCT120
     FM311700 25012G18KT P6SM SCT045 SCT150=



000
FTUS44 KMRX 301732
TAFTYS
TAF
KTYS 301732Z 3018/3118 27007KT P6SM SCT045
     FM310300 00000KT P6SM SCT150 BKN250
     FM311300 23008KT P6SM FEW040 BKN150
     FM311700 24012G20KT P6SM SCT045 SCT200=



000
FTUS44 KMRX 301732
TAFCHA
TAF
KCHA 301732Z 3018/3118 32006KT P6SM SCT045
     FM310300 00000KT P6SM SCT150
     FM311300 23007KT P6SM SCT040 BKN150=



000
FTUS44 KMRX 301555 AAA
TAFTRI
TAF AMD
KTRI 301555Z 3016/3112 25012KT P6SM BKN035
     FM301700 27011KT P6SM SCT040
     FM310000 00000KT P6SM SCT250=



000
FTUS44 KMRX 301506 AAA
TAFCHA
TAF AMD
KCHA 301506Z 3015/3112 34009KT P6SM SCT040
     FM310000 VRB03KT P6SM SCT250=



000
FTUS44 KMRX 301506 AAA
TAFCHA
TAF AMD
KCHA 301506Z 3015/3112 34009KT P6SM SCT040
     FM310000 VRB03KT P6SM SCT250=



000
FTUS44 KMRX 301433 AAA
TAFTYS
TAF AMD
KTYS 301433Z 3015/3112 26010KT P6SM SCT040
     FM310000 VRB03KT P6SM SKC=



000
FTUS44 KMRX 301433 AAA
TAFTYS
TAF AMD
KTYS 301433Z 3015/3112 26010KT P6SM SCT040
     FM310000 VRB03KT P6SM SKC=



000
FTUS44 KMRX 301433 AAA
TAFTYS
TAF AMD
KTYS 301433Z 3015/3112 26010KT P6SM SCT040
     FM310000 VRB03KT P6SM SKC=



000
FTUS44 KMRX 301127
TAFTRI
TAF
KTRI 301127Z 3012/3112 VRB04KT P6SM SCT015 OVC025
     FM301400 27008KT P6SM OVC030
     FM301700 27011KT P6SM SCT040
     FM310000 00000KT P6SM SCT250=



000
FTUS44 KMRX 301127
TAFTYS
TAF
KTYS 301127Z 3012/3112 23009KT P6SM SCT020 OVC030
     FM301600 28009KT P6SM SCT040
     FM310000 VRB03KT P6SM SKC=



000
FTUS44 KMRX 301127
TAFCHA
TAF
KCHA 301127Z 3012/3112 VRB04KT 3SM -DZ BR SCT005 OVC015
     FM301400 35006KT P6SM BKN010
     FM301600 34009KT P6SM SKC
     FM310000 VRB03KT P6SM SCT250=



000
FTUS44 KMRX 301127
TAFCHA
TAF
KCHA 301127Z 3012/3112 VRB04KT 3SM -DZ BR SCT005 OVC015
     FM301400 35006KT P6SM BKN010
     FM301600 34009KT P6SM SKC
     FM310000 VRB03KT P6SM SCT250=



000
FTUS44 KMRX 301127
TAFTYS
TAF
KTYS 301127Z 3012/3112 23009KT P6SM SCT020 OVC030
     FM301600 28009KT P6SM SCT040
     FM310000 VRB03KT P6SM SKC=



000
FTUS44 KMRX 301127
TAFTYS
TAF
KTYS 301127Z 3012/3112 23009KT P6SM SCT020 OVC030
     FM301600 28009KT P6SM SCT040
     FM310000 VRB03KT P6SM SKC=



000
FTUS44 KMRX 301127
TAFTRI
TAF
KTRI 301127Z 3012/3112 VRB04KT P6SM SCT015 OVC025
     FM301400 27008KT P6SM OVC030
     FM301700 27011KT P6SM SCT040
     FM310000 00000KT P6SM SCT250=



000
FTUS44 KMRX 301127
TAFCHA
TAF
KCHA 301127Z 3012/3112 VRB04KT 3SM -DZ BR SCT005 OVC015
     FM301400 35006KT P6SM BKN010
     FM301600 34009KT P6SM SKC
     FM310000 VRB03KT P6SM SCT250=



000
FTUS44 KMRX 301127
TAFTRI
TAF
KTRI 301127Z 3012/3112 VRB04KT P6SM SCT015 OVC025
     FM301400 27008KT P6SM OVC030
     FM301700 27011KT P6SM SCT040
     FM310000 00000KT P6SM SCT250=



000
FTUS44 KMRX 301127
TAFCHA
TAF
KCHA 301127Z 3012/3112 VRB04KT 3SM -DZ BR SCT005 OVC015
     FM301400 35006KT P6SM BKN010
     FM301600 34009KT P6SM SKC
     FM310000 VRB03KT P6SM SCT250=



000
FTUS44 KMRX 301127
TAFTYS
TAF
KTYS 301127Z 3012/3112 23009KT P6SM SCT020 OVC030
     FM301600 28009KT P6SM SCT040
     FM310000 VRB03KT P6SM SKC=



000
FTUS44 KMRX 301127
TAFTRI
TAF
KTRI 301127Z 3012/3112 VRB04KT P6SM SCT015 OVC025
     FM301400 27008KT P6SM OVC030
     FM301700 27011KT P6SM SCT040
     FM310000 00000KT P6SM SCT250=



000
FTUS44 KMRX 301049 AAB
TAFCHA
TAF AMD
KCHA 301049Z 3011/3106 VRB04KT 5SM -DZ BR SCT005 BKN015 OVC035
     FM301400 35006KT P6SM BKN020
     FM301600 34009KT P6SM SKC
     FM310000 VRB03KT P6SM SCT250=



000
FTUS44 KMRX 301049 AAB
TAFCHA
TAF AMD
KCHA 301049Z 3011/3106 VRB04KT 5SM -DZ BR SCT005 BKN015 OVC035
     FM301400 35006KT P6SM BKN020
     FM301600 34009KT P6SM SKC
     FM310000 VRB03KT P6SM SCT250=



000
FTUS44 KMRX 301049 AAB
TAFCHA
TAF AMD
KCHA 301049Z 3011/3106 VRB04KT 5SM -DZ BR SCT005 BKN015 OVC035
     FM301400 35006KT P6SM BKN020
     FM301600 34009KT P6SM SKC
     FM310000 VRB03KT P6SM SCT250=



000
FTUS44 KMRX 301049 AAB
TAFCHA
TAF AMD
KCHA 301049Z 3011/3106 VRB04KT 5SM -DZ BR SCT005 BKN015 OVC035
     FM301400 35006KT P6SM BKN020
     FM301600 34009KT P6SM SKC
     FM310000 VRB03KT P6SM SCT250=



000
FTUS44 KMRX 300822 AAA
TAFCHA
TAF AMD
KCHA 300822Z 3008/3106 21006KT 5SM -SHRA BR SCT020 OVC040
      TEMPO 3008/3009 2SM TSRA BR SCT015 OVC025CB
     FM301200 35008KT P6SM SCT025 BKN050
     FM301600 33008KT P6SM SKC
     FM310000 VRB03KT P6SM SCT250=



000
FTUS44 KMRX 300822 AAA
TAFCHA
TAF AMD
KCHA 300822Z 3008/3106 21006KT 5SM -SHRA BR SCT020 OVC040
      TEMPO 3008/3009 2SM TSRA BR SCT015 OVC025CB
     FM301200 35008KT P6SM SCT025 BKN050
     FM301600 33008KT P6SM SKC
     FM310000 VRB03KT P6SM SCT250=



000
FTUS44 KMRX 300531
TAFTRI
TAF
KTRI 300531Z 3006/3106 19006KT P6SM SCT050 BKN120
     FM300800 21006KT 6SM -SHRA BR OVC050
      TEMPO 3008/3010 4SM -SHRA BR SCT015 OVC030
     FM301200 28006KT P6SM OVC025
     FM301400 27008KT P6SM BKN035
     FM301700 27011KT P6SM SKC
     FM310000 00000KT P6SM SCT250=



000
FTUS44 KMRX 300531
TAFTYS
TAF
KTYS 300531Z 3006/3106 20012KT P6SM VCSH BKN050
     FM300800 23013G20KT 6SM -SHRA BR SCT020 OVC035
      TEMPO 3008/3010 4SM -SHRA BR SCT015 OVC030
     FM301300 27011KT P6SM BKN025
     FM301600 29008KT P6SM SKC
     FM310000 VRB03KT P6SM SKC=



000
FTUS44 KMRX 300531
TAFCHA
TAF
KCHA 300531Z 3006/3106 18007KT P6SM -SHRA BKN050
     FM300700 21006KT 5SM -SHRA BR SCT020 OVC040
      TEMPO 3007/3009 3SM -TSRA SCT015 OVC025CB
     FM301300 35008KT P6SM SCT025 BKN050
     FM301600 33008KT P6SM SKC
     FM310000 VRB03KT P6SM SCT250=



000
FTUS44 KMRX 300531
TAFTYS
TAF
KTYS 300531Z 3006/3106 20012KT P6SM VCSH BKN050
     FM300800 23013G20KT 6SM -SHRA BR SCT020 OVC035
      TEMPO 3008/3010 4SM -SHRA BR SCT015 OVC030
     FM301300 27011KT P6SM BKN025
     FM301600 29008KT P6SM SKC
     FM310000 VRB03KT P6SM SKC=



000
FTUS44 KMRX 300531
TAFCHA
TAF
KCHA 300531Z 3006/3106 18007KT P6SM -SHRA BKN050
     FM300700 21006KT 5SM -SHRA BR SCT020 OVC040
      TEMPO 3007/3009 3SM -TSRA SCT015 OVC025CB
     FM301300 35008KT P6SM SCT025 BKN050
     FM301600 33008KT P6SM SKC
     FM310000 VRB03KT P6SM SCT250=



000
FTUS44 KMRX 300531
TAFTRI
TAF
KTRI 300531Z 3006/3106 19006KT P6SM SCT050 BKN120
     FM300800 21006KT 6SM -SHRA BR OVC050
      TEMPO 3008/3010 4SM -SHRA BR SCT015 OVC030
     FM301200 28006KT P6SM OVC025
     FM301400 27008KT P6SM BKN035
     FM301700 27011KT P6SM SKC
     FM310000 00000KT P6SM SCT250=



000
FTUS44 KMRX 300531
TAFTRI
TAF
KTRI 300531Z 3006/3106 19006KT P6SM SCT050 BKN120
     FM300800 21006KT 6SM -SHRA BR OVC050
      TEMPO 3008/3010 4SM -SHRA BR SCT015 OVC030
     FM301200 28006KT P6SM OVC025
     FM301400 27008KT P6SM BKN035
     FM301700 27011KT P6SM SKC
     FM310000 00000KT P6SM SCT250=



000
FTUS44 KMRX 300531
TAFTYS
TAF
KTYS 300531Z 3006/3106 20012KT P6SM VCSH BKN050
     FM300800 23013G20KT 6SM -SHRA BR SCT020 OVC035
      TEMPO 3008/3010 4SM -SHRA BR SCT015 OVC030
     FM301300 27011KT P6SM BKN025
     FM301600 29008KT P6SM SKC
     FM310000 VRB03KT P6SM SKC=



000
FTUS44 KMRX 300531
TAFCHA
TAF
KCHA 300531Z 3006/3106 18007KT P6SM -SHRA BKN050
     FM300700 21006KT 5SM -SHRA BR SCT020 OVC040
      TEMPO 3007/3009 3SM -TSRA SCT015 OVC025CB
     FM301300 35008KT P6SM SCT025 BKN050
     FM301600 33008KT P6SM SKC
     FM310000 VRB03KT P6SM SCT250=



000
FTUS44 KMRX 300531
TAFCHA
TAF
KCHA 300531Z 3006/3106 18007KT P6SM -SHRA BKN050
     FM300700 21006KT 5SM -SHRA BR SCT020 OVC040
      TEMPO 3007/3009 3SM -TSRA SCT015 OVC025CB
     FM301300 35008KT P6SM SCT025 BKN050
     FM301600 33008KT P6SM SKC
     FM310000 VRB03KT P6SM SCT250=



000
FTUS44 KMRX 300531
TAFTRI
TAF
KTRI 300531Z 3006/3106 19006KT P6SM SCT050 BKN120
     FM300800 21006KT 6SM -SHRA BR OVC050
      TEMPO 3008/3010 4SM -SHRA BR SCT015 OVC030
     FM301200 28006KT P6SM OVC025
     FM301400 27008KT P6SM BKN035
     FM301700 27011KT P6SM SKC
     FM310000 00000KT P6SM SCT250=



000
FTUS44 KMRX 300531
TAFTYS
TAF
KTYS 300531Z 3006/3106 20012KT P6SM VCSH BKN050
     FM300800 23013G20KT 6SM -SHRA BR SCT020 OVC035
      TEMPO 3008/3010 4SM -SHRA BR SCT015 OVC030
     FM301300 27011KT P6SM BKN025
     FM301600 29008KT P6SM SKC
     FM310000 VRB03KT P6SM SKC=



000
FTUS44 KMRX 292336
TAFCHA
TAF
KCHA 292336Z 3000/3024 17006KT P6SM BKN060
     FM300600 24007KT P6SM -RA OVC050
     FM300900 21006KT 6SM -RA BR BKN015
     FM301300 33008KT P6SM BKN020
     FM301800 33008KT P6SM SKC=



000
FTUS44 KMRX 292336
TAFTRI
TAF
KTRI 292336Z 3000/3024 00000KT P6SM BKN250
     FM300600 00000KT P6SM OVC050
     FM300900 24004KT 6SM -SHRA BR OVC015
     FM301200 24005KT 4SM -SHRA BR OVC007
     FM301500 27008KT P6SM OVC015
     FM301800 27009KT P6SM BKN050=



000
FTUS44 KMRX 292336
TAFTYS
TAF
KTYS 292336Z 3000/3024 23008KT P6SM SCT250
     FM300400 22008KT P6SM OVC100
     FM300600 23009KT P6SM VCSH OVC050
     FM300900 23006KT 4SM -SHRA BR OVC020
     FM301100 25005KT P6SM BKN007
     FM301500 27007KT P6SM BKN025
     FM301800 29008KT P6SM SKC=



000
FTUS44 KMRX 292336
TAFTRI
TAF
KTRI 292336Z 3000/3024 00000KT P6SM BKN250
     FM300600 00000KT P6SM OVC050
     FM300900 24004KT 6SM -SHRA BR OVC015
     FM301200 24005KT 4SM -SHRA BR OVC007
     FM301500 27008KT P6SM OVC015
     FM301800 27009KT P6SM BKN050=



000
FTUS44 KMRX 292336
TAFCHA
TAF
KCHA 292336Z 3000/3024 17006KT P6SM BKN060
     FM300600 24007KT P6SM -RA OVC050
     FM300900 21006KT 6SM -RA BR BKN015
     FM301300 33008KT P6SM BKN020
     FM301800 33008KT P6SM SKC=



000
FTUS44 KMRX 292336
TAFTYS
TAF
KTYS 292336Z 3000/3024 23008KT P6SM SCT250
     FM300400 22008KT P6SM OVC100
     FM300600 23009KT P6SM VCSH OVC050
     FM300900 23006KT 4SM -SHRA BR OVC020
     FM301100 25005KT P6SM BKN007
     FM301500 27007KT P6SM BKN025
     FM301800 29008KT P6SM SKC=



000
FTUS44 KMRX 292336
TAFTRI
TAF
KTRI 292336Z 3000/3024 00000KT P6SM BKN250
     FM300600 00000KT P6SM OVC050
     FM300900 24004KT 6SM -SHRA BR OVC015
     FM301200 24005KT 4SM -SHRA BR OVC007
     FM301500 27008KT P6SM OVC015
     FM301800 27009KT P6SM BKN050=



000
FTUS44 KMRX 292336
TAFTYS
TAF
KTYS 292336Z 3000/3024 23008KT P6SM SCT250
     FM300400 22008KT P6SM OVC100
     FM300600 23009KT P6SM VCSH OVC050
     FM300900 23006KT 4SM -SHRA BR OVC020
     FM301100 25005KT P6SM BKN007
     FM301500 27007KT P6SM BKN025
     FM301800 29008KT P6SM SKC=



000
FTUS44 KMRX 292336
TAFCHA
TAF
KCHA 292336Z 3000/3024 17006KT P6SM BKN060
     FM300600 24007KT P6SM -RA OVC050
     FM300900 21006KT 6SM -RA BR BKN015
     FM301300 33008KT P6SM BKN020
     FM301800 33008KT P6SM SKC=



000
FTUS44 KMRX 292336
TAFTYS
TAF
KTYS 292336Z 3000/3024 23008KT P6SM SCT250
     FM300400 22008KT P6SM OVC100
     FM300600 23009KT P6SM VCSH OVC050
     FM300900 23006KT 4SM -SHRA BR OVC020
     FM301100 25005KT P6SM BKN007
     FM301500 27007KT P6SM BKN025
     FM301800 29008KT P6SM SKC=



000
FTUS44 KMRX 292336
TAFCHA
TAF
KCHA 292336Z 3000/3024 17006KT P6SM BKN060
     FM300600 24007KT P6SM -RA OVC050
     FM300900 21006KT 6SM -RA BR BKN015
     FM301300 33008KT P6SM BKN020
     FM301800 33008KT P6SM SKC=



000
FTUS44 KMRX 292336
TAFTRI
TAF
KTRI 292336Z 3000/3024 00000KT P6SM BKN250
     FM300600 00000KT P6SM OVC050
     FM300900 24004KT 6SM -SHRA BR OVC015
     FM301200 24005KT 4SM -SHRA BR OVC007
     FM301500 27008KT P6SM OVC015
     FM301800 27009KT P6SM BKN050=



000
FTUS44 KMRX 292105 AAA
TAFCHA
TAF AMD
KCHA 292105Z 2921/3018 17010G20KT P6SM SCT060
     FM300000 18006KT P6SM BKN050
     FM300400 20006KT P6SM VCSH OVC040
     FM300600 24007KT 4SM SHRA BR OVC020
     FM300900 34005KT 6SM BR BKN015
     FM301300 33008KT P6SM SCT030=



000
FTUS44 KMRX 292105 AAA
TAFCHA
TAF AMD
KCHA 292105Z 2921/3018 17010G20KT P6SM SCT060
     FM300000 18006KT P6SM BKN050
     FM300400 20006KT P6SM VCSH OVC040
     FM300600 24007KT 4SM SHRA BR OVC020
     FM300900 34005KT 6SM BR BKN015
     FM301300 33008KT P6SM SCT030=



000
FTUS44 KMRX 291725
TAFTYS
TAF
KTYS 291725Z 2918/3018 20005KT P6SM SCT250
     FM300200 22008KT P6SM BKN050
     FM300500 23009KT P6SM VCSH OVC040
     FM300700 24010KT 4SM SHRA BR OVC020
     FM301000 27008KT P6SM BKN015
     FM301500 30007KT P6SM SCT030=



000
FTUS44 KMRX 291725
TAFTRI
TAF
KTRI 291725Z 2918/3018 22004KT P6SM SCT250
     FM300400 VRB02KT P6SM BKN050
     FM300700 23003KT P6SM VCSH OVC040
     FM300900 24004KT 5SM SHRA BR OVC030
     FM301200 24005KT 4SM BR VCSH OVC015
     FM301500 27008KT P6SM BKN030=



000
FTUS44 KMRX 291725
TAFTYS
TAF
KTYS 291725Z 2918/3018 20005KT P6SM SCT250
     FM300200 22008KT P6SM BKN050
     FM300500 23009KT P6SM VCSH OVC040
     FM300700 24010KT 4SM SHRA BR OVC020
     FM301000 27008KT P6SM BKN015
     FM301500 30007KT P6SM SCT030=



000
FTUS44 KMRX 291725
TAFCHA
TAF
KCHA 291725Z 2918/3018 17006KT P6SM SCT250
     FM300000 18006KT P6SM BKN050
     FM300400 20006KT P6SM VCSH OVC040
     FM300600 24007KT 4SM SHRA BR OVC020
     FM300900 34005KT 6SM BR BKN015
     FM301300 33008KT P6SM SCT030=



000
FTUS44 KMRX 291725
TAFTRI
TAF
KTRI 291725Z 2918/3018 22004KT P6SM SCT250
     FM300400 VRB02KT P6SM BKN050
     FM300700 23003KT P6SM VCSH OVC040
     FM300900 24004KT 5SM SHRA BR OVC030
     FM301200 24005KT 4SM BR VCSH OVC015
     FM301500 27008KT P6SM BKN030=



000
FTUS44 KMRX 291725
TAFCHA
TAF
KCHA 291725Z 2918/3018 17006KT P6SM SCT250
     FM300000 18006KT P6SM BKN050
     FM300400 20006KT P6SM VCSH OVC040
     FM300600 24007KT 4SM SHRA BR OVC020
     FM300900 34005KT 6SM BR BKN015
     FM301300 33008KT P6SM SCT030=



000
FTUS44 KMRX 291725
TAFTYS
TAF
KTYS 291725Z 2918/3018 20005KT P6SM SCT250
     FM300200 22008KT P6SM BKN050
     FM300500 23009KT P6SM VCSH OVC040
     FM300700 24010KT 4SM SHRA BR OVC020
     FM301000 27008KT P6SM BKN015
     FM301500 30007KT P6SM SCT030=



000
FTUS44 KMRX 291725
TAFTRI
TAF
KTRI 291725Z 2918/3018 22004KT P6SM SCT250
     FM300400 VRB02KT P6SM BKN050
     FM300700 23003KT P6SM VCSH OVC040
     FM300900 24004KT 5SM SHRA BR OVC030
     FM301200 24005KT 4SM BR VCSH OVC015
     FM301500 27008KT P6SM BKN030=



000
FTUS44 KMRX 291725
TAFTYS
TAF
KTYS 291725Z 2918/3018 20005KT P6SM SCT250
     FM300200 22008KT P6SM BKN050
     FM300500 23009KT P6SM VCSH OVC040
     FM300700 24010KT 4SM SHRA BR OVC020
     FM301000 27008KT P6SM BKN015
     FM301500 30007KT P6SM SCT030=



000
FTUS44 KMRX 291725
TAFTRI
TAF
KTRI 291725Z 2918/3018 22004KT P6SM SCT250
     FM300400 VRB02KT P6SM BKN050
     FM300700 23003KT P6SM VCSH OVC040
     FM300900 24004KT 5SM SHRA BR OVC030
     FM301200 24005KT 4SM BR VCSH OVC015
     FM301500 27008KT P6SM BKN030=



000
FTUS44 KMRX 291725
TAFCHA
TAF
KCHA 291725Z 2918/3018 17006KT P6SM SCT250
     FM300000 18006KT P6SM BKN050
     FM300400 20006KT P6SM VCSH OVC040
     FM300600 24007KT 4SM SHRA BR OVC020
     FM300900 34005KT 6SM BR BKN015
     FM301300 33008KT P6SM SCT030=



000
FTUS44 KMRX 291725
TAFCHA
TAF
KCHA 291725Z 2918/3018 17006KT P6SM SCT250
     FM300000 18006KT P6SM BKN050
     FM300400 20006KT P6SM VCSH OVC040
     FM300600 24007KT 4SM SHRA BR OVC020
     FM300900 34005KT 6SM BR BKN015
     FM301300 33008KT P6SM SCT030=



000
FTUS44 KMRX 291122
TAFTRI
TAF
KTRI 291122Z 2912/3012 VRB03KT P6SM SKC
     FM291700 22007KT P6SM SCT250
     FM300300 VRB03KT P6SM BKN050 BKN100
     FM300700 00000KT P6SM VCSH OVC040
     FM300900 VRB03KT 4SM SHRA BR OVC025
     FM301100 24005KT 5SM -RA BR OVC015=



000
FTUS44 KMRX 291122
TAFTRI
TAF
KTRI 291122Z 2912/3012 VRB03KT P6SM SKC
     FM291700 22007KT P6SM SCT250
     FM300300 VRB03KT P6SM BKN050 BKN100
     FM300700 00000KT P6SM VCSH OVC040
     FM300900 VRB03KT 4SM SHRA BR OVC025
     FM301100 24005KT 5SM -RA BR OVC015=



000
FTUS44 KMRX 291122
TAFCHA
TAF
KCHA 291122Z 2912/3012 35005KT P6SM SKC
     FM291700 18008KT P6SM SCT250
     FM300000 19006KT P6SM BKN050
     FM300500 21006KT P6SM VCSH OVC040
     FM300800 23007KT 4SM SHRA BR VCTS OVC020CB
     FM301100 VRB04KT 5SM -RA BR OVC015=



000
FTUS44 KMRX 291122
TAFCHA
TAF
KCHA 291122Z 2912/3012 35005KT P6SM SKC
     FM291700 18008KT P6SM SCT250
     FM300000 19006KT P6SM BKN050
     FM300500 21006KT P6SM VCSH OVC040
     FM300800 23007KT 4SM SHRA BR VCTS OVC020CB
     FM301100 VRB04KT 5SM -RA BR OVC015=



000
FTUS44 KMRX 291122
TAFTRI
TAF
KTRI 291122Z 2912/3012 VRB03KT P6SM SKC
     FM291700 22007KT P6SM SCT250
     FM300300 VRB03KT P6SM BKN050 BKN100
     FM300700 00000KT P6SM VCSH OVC040
     FM300900 VRB03KT 4SM SHRA BR OVC025
     FM301100 24005KT 5SM -RA BR OVC015=



000
FTUS44 KMRX 291122
TAFTYS
TAF
KTYS 291122Z 2912/3012 02005KT P6SM SKC
     FM291700 22011G16KT P6SM SCT250
     FM300200 22008KT P6SM BKN050 BKN100
     FM300600 24009KT P6SM VCSH OVC040
     FM300800 23008KT 4SM SHRA BR OVC020
     FM301100 24007KT 5SM -RA BR OVC010=



000
FTUS44 KMRX 291122
TAFTYS
TAF
KTYS 291122Z 2912/3012 02005KT P6SM SKC
     FM291700 22011G16KT P6SM SCT250
     FM300200 22008KT P6SM BKN050 BKN100
     FM300600 24009KT P6SM VCSH OVC040
     FM300800 23008KT 4SM SHRA BR OVC020
     FM301100 24007KT 5SM -RA BR OVC010=



000
FTUS44 KMRX 291122
TAFCHA
TAF
KCHA 291122Z 2912/3012 35005KT P6SM SKC
     FM291700 18008KT P6SM SCT250
     FM300000 19006KT P6SM BKN050
     FM300500 21006KT P6SM VCSH OVC040
     FM300800 23007KT 4SM SHRA BR VCTS OVC020CB
     FM301100 VRB04KT 5SM -RA BR OVC015=



000
FTUS44 KMRX 291122
TAFTYS
TAF
KTYS 291122Z 2912/3012 02005KT P6SM SKC
     FM291700 22011G16KT P6SM SCT250
     FM300200 22008KT P6SM BKN050 BKN100
     FM300600 24009KT P6SM VCSH OVC040
     FM300800 23008KT 4SM SHRA BR OVC020
     FM301100 24007KT 5SM -RA BR OVC010=



000
FTUS44 KMRX 290535
TAFTYS
TAF
KTYS 290535Z 2906/3006 02005KT P6SM SKC
     FM291700 22012G16KT P6SM SCT250
     FM300200 22008KT P6SM BKN050 BKN100=



000
FTUS44 KMRX 290535
TAFTRI
TAF
KTRI 290535Z 2906/3006 VRB03KT P6SM SKC
     FM291700 22007KT P6SM SCT250
     FM300300 VRB03KT P6SM BKN050 BKN100=



000
FTUS44 KMRX 290535
TAFCHA
TAF
KCHA 290535Z 2906/3006 35005KT P6SM SKC
     FM291700 18008KT P6SM SCT250
     FM300100 19007KT P6SM BKN050 BKN080=



000
FTUS44 KMRX 290535
TAFTYS
TAF
KTYS 290535Z 2906/3006 02005KT P6SM SKC
     FM291700 22012G16KT P6SM SCT250
     FM300200 22008KT P6SM BKN050 BKN100=



000
FTUS44 KMRX 290535
TAFTRI
TAF
KTRI 290535Z 2906/3006 VRB03KT P6SM SKC
     FM291700 22007KT P6SM SCT250
     FM300300 VRB03KT P6SM BKN050 BKN100=



000
FTUS44 KMRX 290535
TAFCHA
TAF
KCHA 290535Z 2906/3006 35005KT P6SM SKC
     FM291700 18008KT P6SM SCT250
     FM300100 19007KT P6SM BKN050 BKN080=



000
FTUS44 KMRX 290535
TAFTYS
TAF
KTYS 290535Z 2906/3006 02005KT P6SM SKC
     FM291700 22012G16KT P6SM SCT250
     FM300200 22008KT P6SM BKN050 BKN100=



000
FTUS44 KMRX 290535
TAFTRI
TAF
KTRI 290535Z 2906/3006 VRB03KT P6SM SKC
     FM291700 22007KT P6SM SCT250
     FM300300 VRB03KT P6SM BKN050 BKN100=



000
FTUS44 KMRX 290535
TAFCHA
TAF
KCHA 290535Z 2906/3006 35005KT P6SM SKC
     FM291700 18008KT P6SM SCT250
     FM300100 19007KT P6SM BKN050 BKN080=



000
FTUS44 KMRX 290535
TAFCHA
TAF
KCHA 290535Z 2906/3006 35005KT P6SM SKC
     FM291700 18008KT P6SM SCT250
     FM300100 19007KT P6SM BKN050 BKN080=



000
FTUS44 KMRX 290535
TAFTRI
TAF
KTRI 290535Z 2906/3006 VRB03KT P6SM SKC
     FM291700 22007KT P6SM SCT250
     FM300300 VRB03KT P6SM BKN050 BKN100=



000
FTUS44 KMRX 290535
TAFTYS
TAF
KTYS 290535Z 2906/3006 02005KT P6SM SKC
     FM291700 22012G16KT P6SM SCT250
     FM300200 22008KT P6SM BKN050 BKN100=



000
FTUS44 KMRX 282320
TAFCHA
TAF
KCHA 282320Z 2900/2924 35005KT P6SM SKC
     FM291200 12004KT P6SM SCT250
     FM291700 18006KT P6SM SCT250=



000
FTUS44 KMRX 282320
TAFCHA
TAF
KCHA 282320Z 2900/2924 35005KT P6SM SKC
     FM291200 12004KT P6SM SCT250
     FM291700 18006KT P6SM SCT250=



000
FTUS44 KMRX 282320
TAFTRI
TAF
KTRI 282320Z 2900/2924 34008KT P6SM SKC
     FM291500 21007KT P6SM SCT250=



000
FTUS44 KMRX 282320
TAFTRI
TAF
KTRI 282320Z 2900/2924 34008KT P6SM SKC
     FM291500 21007KT P6SM SCT250=



000
FTUS44 KMRX 282320
TAFTYS
TAF
KTYS 282320Z 2900/2924 34005KT P6SM SKC
     FM291400 21012KT P6SM SCT250=



000
FTUS44 KMRX 282320
TAFTYS
TAF
KTYS 282320Z 2900/2924 34005KT P6SM SKC
     FM291400 21012KT P6SM SCT250=



    US Dept of Commerce
    National Oceanic and Atmospheric Administration
    National Weather Service
    1325 East West Highway
    Silver Spring, MD 20910
    Page Author: NWS Internet Services Team
Disclaimer
Information Quality
Credits
Glossary
Privacy Policy
Freedom of Information Act (FOIA)
About Us
Career Opportunities